createdAt,value
2019-05-05T00:01:21.833Z,12.86
2019-05-05T00:03:58.744Z,12.82
2019-05-05T00:06:28.101Z,12.85
2019-05-05T00:08:57.565Z,12.82
2019-05-05T00:11:44.488Z,12.77
2019-05-05T00:14:35.088Z,12.73
2019-05-05T00:17:11.533Z,12.63
2019-05-05T00:19:40.865Z,12.57
2019-05-05T00:22:10.217Z,12.59
2019-05-05T00:24:39.540Z,12.59
2019-05-05T00:27:08.866Z,12.59
2019-05-05T00:29:38.230Z,12.58
2019-05-05T00:32:07.579Z,12.59
2019-05-05T00:34:36.898Z,12.59
2019-05-05T00:37:06.229Z,12.53
2019-05-05T00:39:35.801Z,12.47
2019-05-05T00:42:06.205Z,12.50
2019-05-05T00:44:35.542Z,12.57
2019-05-05T00:47:36.072Z,12.61
2019-05-05T00:50:07.307Z,12.59
2019-05-05T00:52:36.628Z,12.66
2019-05-05T00:55:06.796Z,12.68
2019-05-05T00:57:36.179Z,12.63
2019-05-05T01:00:10.390Z,12.65
2019-05-05T01:02:44.903Z,12.71
2019-05-05T01:05:39.615Z,12.72
2019-05-05T01:08:14.444Z,12.78
2019-05-05T01:10:44.351Z,12.90
2019-05-05T01:13:15.209Z,12.84
2019-05-05T01:15:44.939Z,12.88
2019-05-05T01:18:15.221Z,12.89
2019-05-05T01:20:44.909Z,12.88
2019-05-05T01:23:15.009Z,12.88
2019-05-05T01:25:46.128Z,12.85
2019-05-05T01:28:15.596Z,12.75
2019-05-05T01:30:47.341Z,12.74
2019-05-05T01:33:40.336Z,12.74
2019-05-05T01:36:09.961Z,12.76
2019-05-05T01:38:55.232Z,12.72
2019-05-05T01:41:31.827Z,12.75
2019-05-05T01:44:01.235Z,12.73
2019-05-05T01:46:30.626Z,12.71
2019-05-05T01:48:59.970Z,12.70
2019-05-05T01:51:29.455Z,12.64
2019-05-05T01:53:58.792Z,12.64
2019-05-05T01:56:28.946Z,12.64
2019-05-05T01:58:58.592Z,12.61
2019-05-05T02:01:27.907Z,12.58
2019-05-05T02:03:57.255Z,12.60
2019-05-05T02:06:26.586Z,12.63
2019-05-05T02:08:56.001Z,12.59
2019-05-05T02:11:25.392Z,12.55
2019-05-05T02:13:54.845Z,12.52
2019-05-05T02:16:25.333Z,12.54
2019-05-05T02:18:54.895Z,12.54
2019-05-05T02:21:24.875Z,12.50
2019-05-05T02:23:54.847Z,12.51
2019-05-05T02:26:24.609Z,12.53
2019-05-05T02:29:14.256Z,12.55
2019-05-05T02:32:01.740Z,12.63
2019-05-05T02:34:35.835Z,12.75
2019-05-05T02:37:05.585Z,12.83
2019-05-05T02:39:38.104Z,12.89
2019-05-05T02:42:06.117Z,12.85
2019-05-05T02:44:36.017Z,12.80
2019-05-05T02:47:15.434Z,12.85
2019-05-05T02:49:46.298Z,12.84
2019-05-05T02:52:17.831Z,12.84
2019-05-05T02:54:47.562Z,12.77
2019-05-05T02:57:17.911Z,12.75
2019-05-05T03:00:06.496Z,12.75
2019-05-05T03:02:36.689Z,12.68
2019-05-05T03:05:06.443Z,12.64
2019-05-05T03:07:36.692Z,12.49
2019-05-05T03:10:07.200Z,12.45
2019-05-05T03:12:38.791Z,12.41
2019-05-05T03:15:08.658Z,12.41
2019-05-05T03:17:37.999Z,12.50
2019-05-05T03:20:08.225Z,12.55
2019-05-05T03:22:37.774Z,12.51
2019-05-05T03:25:07.131Z,12.52
2019-05-05T03:27:36.587Z,12.42
2019-05-05T03:30:06.503Z,11.06
2019-05-05T03:32:36.362Z,12.38
2019-05-05T03:35:05.953Z,12.37
2019-05-05T03:37:35.495Z,12.38
2019-05-05T03:40:11.893Z,12.39
2019-05-05T03:42:48.316Z,12.46
2019-05-05T03:45:37.390Z,12.51
2019-05-05T03:48:06.929Z,12.50
2019-05-05T03:50:36.729Z,12.55
2019-05-05T03:53:06.727Z,12.50
2019-05-05T03:55:36.447Z,12.43
2019-05-05T03:58:05.995Z,12.40
2019-05-05T04:01:16.659Z,12.38
2019-05-05T04:03:45.984Z,12.30
2019-05-05T04:06:16.988Z,12.32
2019-05-05T04:08:46.340Z,12.32
2019-05-05T04:11:15.669Z,12.40
2019-05-05T04:13:45.316Z,12.45
2019-05-05T04:16:23.628Z,12.41
2019-05-05T04:18:56.829Z,12.44
2019-05-05T04:21:33.207Z,12.49
2019-05-05T04:23:57.214Z,12.48
2019-05-05T04:26:26.627Z,12.49
2019-05-05T04:28:55.991Z,12.50
2019-05-05T04:31:25.342Z,12.55
2019-05-05T04:33:55.058Z,12.52
2019-05-05T04:36:24.386Z,12.54
2019-05-05T04:38:54.572Z,12.55
2019-05-05T04:41:24.606Z,12.59
2019-05-05T04:43:54.725Z,12.61
2019-05-05T04:46:24.609Z,12.58
2019-05-05T04:48:59.449Z,12.55
2019-05-05T04:51:44.809Z,12.59
2019-05-05T04:54:24.521Z,12.67
2019-05-05T04:56:54.114Z,12.73
2019-05-05T04:59:23.638Z,12.85
2019-05-05T05:01:55.801Z,12.94
2019-05-05T05:04:53.624Z,13.03
2019-05-05T05:07:24.231Z,13.15
2019-05-05T05:09:54.091Z,13.38
2019-05-05T05:12:23.826Z,13.46
2019-05-05T05:14:54.693Z,13.53
2019-05-05T05:17:30.607Z,13.47
2019-05-05T05:19:59.932Z,13.41
2019-05-05T05:22:29.672Z,13.34
2019-05-05T05:24:59.016Z,13.34
2019-05-05T05:27:28.353Z,13.36
2019-05-05T05:29:58.090Z,13.36
2019-05-05T05:32:27.441Z,13.32
2019-05-05T05:34:56.766Z,13.37
2019-05-05T05:37:26.111Z,13.40
2019-05-05T05:40:04.973Z,13.33
2019-05-05T05:42:34.315Z,13.36
2019-05-05T05:45:34.855Z,13.36
2019-05-05T05:48:18.363Z,13.42
2019-05-05T05:50:59.774Z,13.49
2019-05-05T05:53:29.123Z,13.47
2019-05-05T05:55:58.516Z,13.37
2019-05-05T05:58:27.874Z,13.40
2019-05-05T06:00:57.976Z,13.41
2019-05-05T06:03:27.301Z,13.44
2019-05-05T06:05:56.658Z,13.41
2019-05-05T06:08:26.010Z,13.33
2019-05-05T06:10:55.371Z,13.29
2019-05-05T06:13:24.732Z,13.30
2019-05-05T06:15:54.149Z,13.31
2019-05-05T06:18:24.374Z,13.24
2019-05-05T06:20:54.242Z,13.10
2019-05-05T06:23:24.166Z,13.01
2019-05-05T06:25:55.152Z,13.07
2019-05-05T06:28:24.722Z,13.05
2019-05-05T06:30:54.628Z,13.16
2019-05-05T06:33:24.321Z,13.20
2019-05-05T06:35:53.785Z,12.97
2019-05-05T06:38:24.130Z,13.10
2019-05-05T06:41:11.108Z,13.41
2019-05-05T06:44:14.718Z,13.19
2019-05-05T06:47:01.734Z,13.09
2019-05-05T06:49:31.407Z,13.14
2019-05-05T06:52:00.778Z,13.25
2019-05-05T06:54:30.121Z,13.35
2019-05-05T06:56:59.553Z,13.44
2019-05-05T06:59:28.900Z,13.66
2019-05-05T07:01:58.226Z,13.60
2019-05-05T07:04:27.568Z,13.46
2019-05-05T07:06:57.397Z,13.62
2019-05-05T07:09:26.739Z,13.75
2019-05-05T07:11:56.091Z,14.07
2019-05-05T07:14:25.463Z,14.64
2019-05-05T07:16:54.832Z,14.78
2019-05-05T07:19:24.166Z,15.11
2019-05-05T07:21:53.935Z,15.64
2019-05-05T07:24:23.988Z,15.55
2019-05-05T07:26:54.095Z,15.89
2019-05-05T07:29:23.979Z,15.86
2019-05-05T07:31:54.538Z,15.81
2019-05-05T07:34:25.350Z,15.53
2019-05-05T07:36:54.963Z,15.38
2019-05-05T07:39:24.333Z,15.28
2019-05-05T07:41:54.290Z,15.18
2019-05-05T07:44:29.380Z,15.27
2019-05-05T07:46:54.867Z,15.60
2019-05-05T07:49:24.461Z,16.36
2019-05-05T07:51:54.687Z,17.04
2019-05-05T07:54:24.232Z,16.66
2019-05-05T07:56:53.981Z,17.38
2019-05-05T07:59:23.942Z,17.62
2019-05-05T08:01:54.774Z,17.40
2019-05-05T08:04:24.424Z,18.42
2019-05-05T08:06:54.023Z,18.09
2019-05-05T08:09:24.961Z,17.97
2019-05-05T08:11:54.447Z,17.47
2019-05-05T08:14:24.545Z,16.85
2019-05-05T08:17:11.759Z,16.56
2019-05-05T08:19:49.172Z,17.74
2019-05-05T08:22:18.923Z,18.72
2019-05-05T08:24:58.527Z,18.72
2019-05-05T08:27:56.178Z,19.23
2019-05-05T08:30:59.880Z,19.85
2019-05-05T08:33:29.217Z,20.96
2019-05-05T08:35:58.577Z,21.13
2019-05-05T08:38:27.964Z,21.49
2019-05-05T08:40:57.373Z,20.19
2019-05-05T08:43:26.733Z,20.12
2019-05-05T08:45:56.101Z,19.32
2019-05-05T08:48:25.430Z,19.31
2019-05-05T08:50:54.782Z,19.14
2019-05-05T08:53:24.381Z,19.81
2019-05-05T08:55:54.661Z,19.39
2019-05-05T08:58:24.102Z,18.81
2019-05-05T09:00:53.733Z,18.47
2019-05-05T09:03:24.325Z,18.68
2019-05-05T09:05:54.295Z,18.44
2019-05-05T09:08:24.179Z,18.25
2019-05-05T09:10:55.172Z,17.71
2019-05-05T09:13:24.929Z,17.54
2019-05-05T09:15:54.550Z,17.58
2019-05-05T09:18:24.575Z,17.66
2019-05-05T09:20:54.116Z,17.44
2019-05-05T09:23:24.128Z,17.29
2019-05-05T09:26:18.241Z,17.01
2019-05-05T09:29:06.517Z,17.56
2019-05-05T09:31:35.899Z,18.34
2019-05-05T09:34:05.234Z,18.84
2019-05-05T09:36:34.880Z,19.00
2019-05-05T09:39:05.980Z,19.44
2019-05-05T09:41:35.337Z,20.02
2019-05-05T09:44:04.767Z,20.01
2019-05-05T09:46:34.176Z,19.53
2019-05-05T09:49:04.679Z,20.15
2019-05-05T09:51:34.789Z,20.67
2019-05-05T09:54:13.939Z,20.16
2019-05-05T09:56:36.169Z,19.54
2019-05-05T09:59:06.099Z,19.27
2019-05-05T10:01:35.573Z,19.44
2019-05-05T10:04:09.134Z,19.17
2019-05-05T10:06:39.458Z,18.95
2019-05-05T10:09:10.653Z,18.64
2019-05-05T10:11:40.364Z,18.41
2019-05-05T10:14:10.146Z,18.91
2019-05-05T10:16:41.562Z,20.22
2019-05-05T10:19:10.970Z,21.82
2019-05-05T10:21:40.374Z,21.33
2019-05-05T10:24:27.893Z,20.27
2019-05-05T10:26:48.582Z,20.01
2019-05-05T10:29:17.939Z,19.99
2019-05-05T10:31:48.092Z,20.08
2019-05-05T10:34:18.563Z,19.79
2019-05-05T10:36:47.917Z,19.10
2019-05-05T10:39:36.203Z,19.17
2019-05-05T10:42:05.749Z,19.17
2019-05-05T10:44:35.317Z,19.50
2019-05-05T10:47:04.831Z,19.91
2019-05-05T10:49:34.325Z,20.44
2019-05-05T10:52:04.231Z,21.10
2019-05-05T10:54:43.264Z,22.43
2019-05-05T10:57:04.723Z,22.29
2019-05-05T10:59:34.478Z,21.04
2019-05-05T11:02:04.979Z,20.54
2019-05-05T11:04:34.931Z,20.26
2019-05-05T11:07:04.430Z,20.09
2019-05-05T11:09:34.580Z,19.97
2019-05-05T11:12:03.981Z,20.02
2019-05-05T11:14:33.780Z,19.76
2019-05-05T11:17:04.120Z,19.84
2019-05-05T11:19:33.982Z,19.59
2019-05-05T11:22:03.410Z,19.51
2019-05-05T11:24:34.589Z,19.43
2019-05-05T11:27:04.428Z,19.40
2019-05-05T11:29:35.538Z,19.41
2019-05-05T11:32:07.637Z,19.48
2019-05-05T11:34:36.979Z,19.49
2019-05-05T11:37:12.147Z,19.52
2019-05-05T11:39:41.539Z,19.70
2019-05-05T11:42:10.931Z,19.96
2019-05-05T11:44:40.272Z,20.59
2019-05-05T11:47:09.670Z,20.72
2019-05-05T11:49:39.011Z,20.41
2019-05-05T11:52:08.373Z,20.38
2019-05-05T11:54:38.832Z,20.61
2019-05-05T11:57:08.128Z,20.36
2019-05-05T11:59:37.484Z,20.36
2019-05-05T12:02:06.814Z,20.42
2019-05-05T12:04:36.199Z,20.44
2019-05-05T12:07:05.919Z,20.51
2019-05-05T12:09:49.906Z,20.56
2019-05-05T12:12:19.378Z,20.71
2019-05-05T12:14:49.197Z,20.80
2019-05-05T12:17:34.562Z,20.19
2019-05-05T12:20:05.927Z,20.77
2019-05-05T12:22:35.275Z,20.91
2019-05-05T12:25:06.725Z,20.62
2019-05-05T12:27:45.604Z,20.42
2019-05-05T12:30:15.328Z,20.67
2019-05-05T12:32:44.667Z,20.97
2019-05-05T12:35:14.813Z,21.26
2019-05-05T12:37:44.624Z,21.46
2019-05-05T12:40:14.450Z,21.30
2019-05-05T12:42:44.072Z,21.35
2019-05-05T12:45:17.447Z,21.38
2019-05-05T12:48:04.663Z,21.42
2019-05-05T12:50:34.009Z,21.60
2019-05-05T12:53:04.083Z,21.56
2019-05-05T12:55:41.483Z,21.67
2019-05-05T12:58:04.756Z,21.67
2019-05-05T13:00:35.509Z,21.17
2019-05-05T13:03:04.959Z,20.92
2019-05-05T13:05:34.303Z,20.82
2019-05-05T13:08:03.951Z,20.81
2019-05-05T13:10:33.760Z,20.92
2019-05-05T13:13:03.845Z,20.91
2019-05-05T13:15:33.921Z,21.21
2019-05-05T13:18:03.666Z,21.36
2019-05-05T13:20:50.145Z,21.42
2019-05-05T13:23:47.613Z,21.25
2019-05-05T13:26:23.669Z,20.93
2019-05-05T13:28:54.641Z,20.45
2019-05-05T13:31:24.019Z,20.48
2019-05-05T13:33:54.849Z,20.21
2019-05-05T13:36:24.369Z,20.39
2019-05-05T13:38:54.535Z,20.45
2019-05-05T13:41:25.017Z,20.53
2019-05-05T13:43:56.143Z,20.07
2019-05-05T13:46:27.493Z,20.11
2019-05-05T13:49:15.772Z,20.05
2019-05-05T13:51:45.354Z,19.65
2019-05-05T13:54:14.795Z,19.44
2019-05-05T13:56:44.834Z,19.46
2019-05-05T13:59:14.357Z,19.49
2019-05-05T14:01:44.808Z,19.29
2019-05-05T14:04:24.805Z,19.23
2019-05-05T14:06:55.195Z,19.15
2019-05-05T14:09:40.554Z,17.29
2019-05-05T14:12:16.750Z,18.77
2019-05-05T14:14:50.363Z,18.63
2019-05-05T14:17:20.830Z,18.67
2019-05-05T14:20:03.998Z,18.66
2019-05-05T14:22:24.266Z,18.54
2019-05-05T14:25:08.589Z,18.64
2019-05-05T14:27:37.975Z,18.63
2019-05-05T14:30:23.974Z,18.61
2019-05-05T14:32:54.425Z,18.63
2019-05-05T14:35:36.199Z,18.78
2019-05-05T14:38:08.869Z,18.81
2019-05-05T14:40:38.382Z,18.68
2019-05-05T14:43:08.186Z,18.58
2019-05-05T14:45:37.533Z,18.46
2019-05-05T14:48:07.248Z,18.41
2019-05-05T14:50:36.613Z,18.39
2019-05-05T14:53:06.415Z,18.33
2019-05-05T14:55:35.855Z,18.18
2019-05-05T14:58:05.283Z,18.26
2019-05-05T15:00:34.789Z,18.28
2019-05-05T15:03:04.169Z,18.21
2019-05-05T15:05:48.069Z,18.36
2019-05-05T15:08:37.820Z,18.43
2019-05-05T15:11:17.270Z,18.48
2019-05-05T15:13:47.551Z,18.58
2019-05-05T15:16:16.937Z,18.53
2019-05-05T15:18:46.363Z,18.44
2019-05-05T15:21:15.759Z,18.35
2019-05-05T15:23:45.116Z,18.23
2019-05-05T15:26:14.611Z,18.12
2019-05-05T15:28:57.735Z,18.05
2019-05-05T15:31:17.995Z,17.90
2019-05-05T15:33:47.623Z,17.88
2019-05-05T15:36:17.186Z,17.83
2019-05-05T15:38:46.810Z,17.79
2019-05-05T15:41:16.144Z,17.69
2019-05-05T15:43:45.759Z,17.69
2019-05-05T15:46:15.354Z,17.64
2019-05-05T15:48:46.924Z,17.58
2019-05-05T15:51:19.217Z,17.52
2019-05-05T15:53:48.651Z,17.45
2019-05-05T15:56:19.091Z,17.46
2019-05-05T15:58:48.472Z,17.43
2019-05-05T16:01:18.368Z,17.40
2019-05-05T16:03:54.323Z,17.41
2019-05-05T16:06:23.958Z,17.47
2019-05-05T16:08:56.658Z,17.46
2019-05-05T16:11:26.987Z,17.52
2019-05-05T16:13:56.489Z,17.61
2019-05-05T16:16:42.123Z,17.65
2019-05-05T16:19:24.737Z,17.65
2019-05-05T16:22:03.755Z,17.63
2019-05-05T16:24:36.471Z,17.68
2019-05-05T16:27:18.612Z,17.69
2019-05-05T16:29:37.210Z,17.71
2019-05-05T16:32:17.804Z,17.71
2019-05-05T16:34:40.725Z,17.77
2019-05-05T16:37:10.094Z,17.77
2019-05-05T16:39:39.446Z,17.77
2019-05-05T16:42:08.787Z,17.76
2019-05-05T16:44:38.142Z,17.74
2019-05-05T16:47:07.717Z,17.78
2019-05-05T16:49:37.125Z,17.84
2019-05-05T16:52:14.581Z,17.85
2019-05-05T16:55:04.362Z,17.84
2019-05-05T16:57:36.631Z,17.85
2019-05-05T17:00:05.887Z,17.89
2019-05-05T17:02:39.810Z,17.84
2019-05-05T17:05:14.801Z,17.84
2019-05-05T17:08:00.078Z,17.81
2019-05-05T17:10:34.249Z,17.68
2019-05-05T17:13:28.719Z,17.59
2019-05-05T17:16:34.992Z,17.47
2019-05-05T17:19:13.930Z,17.36
2019-05-05T17:22:01.244Z,17.29
2019-05-05T17:24:30.635Z,17.24
2019-05-05T17:27:00.022Z,17.24
2019-05-05T17:29:29.819Z,17.23
2019-05-05T17:31:59.641Z,17.15
2019-05-05T17:34:30.853Z,14.89
2019-05-05T17:37:00.217Z,17.00
2019-05-05T17:39:34.421Z,16.88
2019-05-05T17:42:23.991Z,16.81
2019-05-05T17:45:11.043Z,16.76
2019-05-05T17:47:47.291Z,16.68
2019-05-05T17:50:21.533Z,16.69
2019-05-05T17:53:15.989Z,16.54
2019-05-05T17:55:45.427Z,16.52
2019-05-05T17:58:14.965Z,16.55
2019-05-05T18:00:54.446Z,16.50
2019-05-05T18:03:23.869Z,16.42
2019-05-05T18:06:03.231Z,16.31
2019-05-05T18:08:41.131Z,16.28
2019-05-05T18:11:17.028Z,16.15
2019-05-05T18:13:50.503Z,15.96
2019-05-05T18:16:20.966Z,15.90
2019-05-05T18:18:50.827Z,15.93
2019-05-05T18:21:24.739Z,15.94
2019-05-05T18:23:54.565Z,15.98
2019-05-05T18:26:24.393Z,15.98
2019-05-05T18:28:54.258Z,15.95
2019-05-05T18:31:24.245Z,15.92
2019-05-05T18:33:54.308Z,15.81
2019-05-05T18:36:23.853Z,15.72
2019-05-05T18:38:53.862Z,15.64
2019-05-05T18:41:38.021Z,15.57
2019-05-05T18:44:24.177Z,15.44
2019-05-05T18:47:18.476Z,15.30
2019-05-05T18:49:49.068Z,15.32
2019-05-05T18:52:20.291Z,15.41
2019-05-05T18:54:49.822Z,15.41
2019-05-05T18:57:19.163Z,15.43
2019-05-05T18:59:48.596Z,15.40
2019-05-05T19:02:48.932Z,15.31
2019-05-05T19:05:31.392Z,15.31
